createdAt,value
2022-09-09T00:02:20.814Z,56.80
2022-09-09T00:07:33.838Z,56.80
2022-09-09T00:12:44.871Z,56.80
2022-09-09T00:17:55.179Z,57.40
2022-09-09T00:23:05.375Z,56.80
2022-09-09T00:28:19.708Z,56.80
2022-09-09T00:33:25.777Z,56.80
2022-09-09T00:38:36.614Z,56.80
2022-09-09T00:43:43.643Z,57.40
2022-09-09T00:48:54.012Z,56.80
2022-09-09T00:54:22.753Z,56.70
2022-09-09T00:59:37.262Z,56.70
2022-09-09T01:04:40.339Z,56.60
2022-09-09T01:09:57.390Z,56.60
2022-09-09T01:15:10.717Z,56.60
2022-09-09T01:20:20.140Z,56.60
2022-09-09T01:25:47.314Z,56.50
2022-09-09T01:30:52.020Z,56.60
2022-09-09T01:35:59.396Z,56.40
2022-09-09T01:41:02.810Z,56.30
2022-09-09T01:46:07.193Z,56.30
2022-09-09T01:51:11.402Z,56.30
2022-09-09T01:56:24.896Z,56.20
2022-09-09T02:01:43.799Z,56.20
2022-09-09T02:06:50.033Z,56.30
2022-09-09T02:12:02.263Z,56.10
2022-09-09T02:17:12.686Z,56.00
2022-09-09T02:22:17.459Z,56.10
2022-09-09T02:27:22.662Z,56.10
2022-09-09T02:32:27.178Z,55.90
2022-09-09T02:37:37.547Z,55.80
2022-09-09T02:42:44.913Z,56.50
2022-09-09T02:47:58.012Z,55.80
2022-09-09T02:53:11.071Z,55.90
2022-09-09T02:58:17.885Z,55.90
2022-09-09T03:03:23.050Z,55.70
2022-09-09T03:08:26.026Z,55.80
2022-09-09T03:13:29.396Z,55.80
2022-09-09T03:18:35.542Z,55.60
2022-09-09T03:23:38.647Z,55.70
2022-09-09T03:28:41.627Z,55.70
2022-09-09T03:33:45.951Z,55.70
2022-09-09T03:38:48.903Z,55.80
2022-09-09T03:43:52.279Z,55.90
2022-09-09T03:48:57.203Z,56.00
2022-09-09T03:54:00.155Z,56.00
2022-09-09T03:59:03.114Z,56.10
2022-09-09T04:04:07.460Z,56.30
2022-09-09T04:09:10.423Z,56.30
2022-09-09T04:14:13.744Z,56.40
2022-09-09T04:19:18.050Z,56.50
2022-09-09T04:24:21.203Z,56.50
2022-09-09T04:29:24.146Z,56.60
2022-09-09T04:34:29.351Z,56.60
2022-09-09T04:39:32.322Z,56.60
2022-09-09T04:44:35.309Z,56.70
2022-09-09T04:49:40.239Z,56.70
2022-09-09T04:54:43.163Z,56.70
2022-09-09T04:59:46.833Z,56.70
2022-09-09T05:04:51.594Z,56.70
2022-09-09T05:09:54.682Z,56.80
2022-09-09T05:14:57.621Z,56.80
2022-09-09T05:20:02.963Z,56.80
2022-09-09T05:25:08.766Z,56.90
2022-09-09T05:30:12.596Z,56.80
2022-09-09T05:35:17.367Z,56.90
2022-09-09T05:40:20.752Z,57.00
2022-09-09T05:45:23.751Z,57.00
2022-09-09T05:50:31.539Z,57.30
2022-09-09T05:55:34.891Z,57.30
2022-09-09T06:00:37.889Z,57.20
2022-09-09T06:05:42.239Z,57.20
2022-09-09T06:10:46.311Z,57.20
2022-09-09T06:15:53.227Z,57.50
2022-09-09T06:20:58.955Z,57.80
2022-09-09T06:26:07.014Z,58.40
2022-09-09T06:31:11.778Z,58.80
2022-09-09T06:36:18.973Z,58.60
2022-09-09T06:41:26.634Z,58.40
2022-09-09T06:46:31.118Z,58.20
2022-09-09T06:51:36.964Z,58.20
2022-09-09T06:56:42.993Z,58.20
2022-09-09T07:01:46.394Z,58.10
2022-09-09T07:06:51.189Z,58.10
2022-09-09T07:11:54.647Z,58.10
2022-09-09T07:16:59.854Z,58.10
2022-09-09T07:22:04.619Z,58.10
2022-09-09T07:27:07.627Z,58.00
2022-09-09T07:32:10.563Z,58.00
2022-09-09T07:37:15.138Z,57.90
2022-09-09T07:42:18.066Z,58.00
2022-09-09T07:47:21.103Z,57.90
2022-09-09T07:52:25.407Z,57.90
2022-09-09T07:57:28.527Z,57.90
2022-09-09T08:02:31.478Z,57.90
2022-09-09T08:07:36.010Z,57.80
2022-09-09T08:12:40.303Z,58.40
2022-09-09T08:17:48.186Z,57.80
2022-09-09T08:22:52.615Z,57.90
2022-09-09T08:27:56.783Z,57.90
2022-09-09T08:33:01.002Z,58.00
2022-09-09T08:38:08.911Z,57.90
2022-09-09T08:43:14.283Z,57.90
2022-09-09T08:48:31.676Z,58.00
2022-09-09T08:53:41.919Z,57.90
2022-09-09T08:58:49.810Z,57.90
2022-09-09T09:03:59.615Z,57.90
2022-09-09T09:09:10.141Z,57.90
2022-09-09T09:14:17.338Z,57.80
2022-09-09T09:19:23.738Z,57.70
2022-09-09T09:24:36.951Z,58.20
2022-09-09T09:30:04.151Z,57.50
2022-09-09T09:35:11.887Z,57.60
2022-09-09T09:40:18.836Z,57.80
2022-09-09T09:45:30.628Z,57.80
2022-09-09T09:50:35.571Z,57.80
2022-09-09T09:55:52.368Z,58.30
2022-09-09T10:00:56.063Z,58.30
2022-09-09T10:05:59.466Z,57.70
2022-09-09T10:11:28.050Z,57.70
2022-09-09T10:16:46.895Z,57.60
2022-09-09T10:22:04.369Z,57.60
2022-09-09T10:27:17.739Z,57.60
2022-09-09T10:32:43.610Z,58.20
2022-09-09T10:38:15.876Z,57.50
2022-09-09T10:43:29.954Z,57.60
2022-09-09T10:48:39.392Z,57.60
2022-09-09T10:53:53.856Z,57.60
2022-09-09T10:59:04.369Z,58.20
2022-09-09T11:04:17.877Z,57.60
2022-09-09T11:09:25.024Z,57.50
2022-09-09T11:14:37.565Z,57.50
2022-09-09T11:19:44.619Z,57.50
2022-09-09T11:24:52.865Z,57.50
2022-09-09T11:30:31.940Z,57.50
2022-09-09T11:36:04.419Z,57.40
2022-09-09T11:41:11.551Z,57.50
2022-09-09T11:46:18.377Z,57.50
2022-09-09T11:51:29.249Z,57.60
2022-09-09T11:56:33.470Z,57.80
2022-09-09T12:01:39.861Z,57.80
2022-09-09T12:06:47.563Z,57.70
2022-09-09T12:11:51.563Z,57.60
2022-09-09T12:16:55.961Z,58.00
2022-09-09T12:22:07.116Z,57.30
2022-09-09T12:27:18.062Z,57.20
2022-09-09T12:32:26.511Z,57.20
2022-09-09T12:37:35.203Z,56.90
2022-09-09T12:42:42.582Z,56.80
2022-09-09T12:47:50.414Z,56.70
2022-09-09T12:52:56.030Z,56.80
2022-09-09T12:58:01.138Z,56.80
2022-09-09T13:03:18.827Z,56.60
2022-09-09T13:08:22.428Z,56.60
2022-09-09T13:13:28.588Z,56.50
2022-09-09T13:18:35.870Z,56.40
2022-09-09T13:23:40.193Z,56.40
2022-09-09T13:28:43.132Z,56.30
2022-09-09T13:33:47.835Z,56.90
2022-09-09T13:38:57.884Z,56.20
2022-09-09T13:44:01.901Z,56.20
2022-09-09T13:49:23.343Z,56.20
2022-09-09T13:54:26.331Z,56.20
2022-09-09T13:59:48.024Z,56.70
2022-09-09T14:04:56.259Z,55.90
2022-09-09T14:10:01.221Z,55.80
2022-09-09T14:15:04.670Z,55.80
2022-09-09T14:20:11.115Z,55.80
2022-09-09T14:25:15.187Z,56.00
2022-09-09T14:30:18.302Z,55.90
2022-09-09T14:35:23.204Z,56.10
2022-09-09T14:40:26.305Z,56.00
2022-09-09T14:45:29.400Z,55.90
2022-09-09T14:50:35.784Z,56.20
2022-09-09T14:55:39.863Z,55.50
2022-09-09T15:00:42.799Z,56.30
2022-09-09T15:05:47.110Z,56.00
2022-09-09T15:10:51.072Z,56.00
2022-09-09T15:15:55.243Z,56.20
2022-09-09T15:20:59.582Z,55.80
2022-09-09T15:26:02.898Z,55.70
2022-09-09T15:31:09.256Z,56.40
2022-09-09T15:36:18.491Z,56.10
2022-09-09T15:41:22.654Z,56.40
2022-09-09T15:46:31.203Z,56.30
2022-09-09T15:51:43.167Z,56.30
2022-09-09T15:56:49.758Z,56.30
2022-09-09T16:01:52.916Z,56.30
2022-09-09T16:06:59.627Z,56.20
2022-09-09T16:12:03.983Z,56.30
2022-09-09T16:17:08.197Z,56.30
2022-09-09T16:22:12.497Z,55.90
2022-09-09T16:27:15.953Z,55.90
2022-09-09T16:32:18.887Z,55.90
2022-09-09T16:37:23.171Z,56.10
2022-09-09T16:42:26.098Z,55.70
2022-09-09T16:47:30.310Z,55.70
2022-09-09T16:52:34.621Z,55.90
2022-09-09T16:57:37.612Z,56.00
2022-09-09T17:02:40.653Z,56.40
2022-09-09T17:07:45.463Z,55.90
2022-09-09T17:12:48.397Z,56.00
2022-09-09T17:17:54.529Z,56.30
2022-09-09T17:22:58.844Z,56.40
2022-09-09T17:28:03.438Z,56.60
2022-09-09T17:33:07.881Z,56.70
2022-09-09T17:38:13.131Z,56.80
2022-09-09T17:43:17.038Z,56.60
2022-09-09T17:48:19.971Z,55.70
2022-09-09T17:53:24.318Z,54.90
2022-09-09T17:58:27.246Z,53.90
2022-09-09T18:03:30.230Z,53.50
2022-09-09T18:08:36.870Z,53.30
2022-09-09T18:13:40.027Z,53.30
2022-09-09T18:18:43.795Z,53.50
2022-09-09T18:23:49.503Z,54.10
2022-09-09T18:28:54.454Z,54.80
2022-09-09T18:34:00.394Z,53.90
2022-09-09T18:39:06.231Z,53.50
2022-09-09T18:44:16.126Z,54.60
2022-09-09T18:49:19.435Z,55.20
2022-09-09T18:54:26.028Z,55.40
2022-09-09T18:59:29.840Z,55.50
2022-09-09T19:04:33.688Z,55.70
2022-09-09T19:09:38.042Z,56.60
2022-09-09T19:14:41.358Z,57.10
2022-09-09T19:19:44.330Z,57.70
2022-09-09T19:24:49.093Z,57.70
2022-09-09T19:29:56.361Z,57.50
2022-09-09T19:34:59.918Z,57.80
2022-09-09T19:40:06.719Z,57.90
2022-09-09T19:45:10.757Z,57.70
2022-09-09T19:50:13.691Z,57.50
2022-09-09T19:55:18.478Z,57.70
2022-09-09T20:00:21.462Z,58.00
2022-09-09T20:05:24.813Z,58.20
2022-09-09T20:10:29.226Z,58.20
2022-09-09T20:15:32.241Z,58.00
2022-09-09T20:20:35.219Z,58.10
2022-09-09T20:25:39.559Z,58.40
2022-09-09T20:30:42.486Z,58.50
2022-09-09T20:35:45.675Z,58.40
2022-09-09T20:40:50.935Z,58.80
2022-09-09T20:45:57.498Z,58.70
2022-09-09T20:51:05.282Z,59.10
2022-09-09T20:56:10.518Z,58.30
2022-09-09T21:01:17.063Z,58.20
2022-09-09T21:06:20.740Z,58.10
2022-09-09T21:11:25.146Z,58.40
2022-09-09T21:16:28.866Z,58.20
2022-09-09T21:21:31.806Z,58.00
2022-09-09T21:26:36.530Z,57.90
2022-09-09T21:31:39.678Z,57.80
2022-09-09T21:36:42.637Z,57.60
2022-09-09T21:41:47.606Z,57.60
2022-09-09T21:46:50.646Z,57.50
2022-09-09T21:51:53.667Z,57.50
2022-09-09T21:56:58.048Z,57.50
2022-09-09T22:02:01.080Z,57.40
2022-09-09T22:07:04.230Z,57.30
2022-09-09T22:12:08.763Z,57.40
2022-09-09T22:17:12.166Z,57.40
2022-09-09T22:22:15.165Z,57.40
2022-09-09T22:27:19.757Z,57.40
2022-09-09T22:32:22.724Z,57.40
2022-09-09T22:37:26.256Z,57.40
2022-09-09T22:42:30.564Z,58.00
2022-09-09T22:47:34.498Z,57.40
2022-09-09T22:52:37.460Z,57.40
2022-09-09T22:57:42.094Z,57.40
2022-09-09T23:02:45.086Z,57.40
2022-09-09T23:07:48.598Z,58.00
2022-09-09T23:12:53.406Z,57.40
2022-09-09T23:17:56.630Z,57.50
2022-09-09T23:23:00.614Z,57.40
2022-09-09T23:28:05.331Z,57.40
2022-09-09T23:33:08.271Z,57.40
2022-09-09T23:38:11.487Z,57.40
2022-09-09T23:43:15.784Z,57.40
2022-09-09T23:48:19.111Z,57.40
2022-09-09T23:53:22.379Z,57.40
2022-09-09T23:58:26.855Z,57.40
